sensor_id;sensor_type;location;lat;lon;timestamp;pressure;altitude;pressure_sealevel;temperature;humidity
6565;BME280;3316;44.118;27.258;2022-09-09T00:01:30;101153.34;;;19.90;100.00
6565;BME280;3316;44.118;27.258;2022-09-09T00:04:05;101154.47;;;19.84;100.00
6565;BME280;3316;44.118;27.258;2022-09-09T00:06:45;101145.56;;;19.84;100.00
6565;BME280;3316;44.118;27.258;2022-09-09T00:09:19;101129.19;;;19.71;100.00
6565;BME280;3316;44.118;27.258;2022-09-09T00:12:14;101157.94;;;19.86;100.00
6565;BME280;3316;44.118;27.258;2022-09-09T00:14:47;101153.41;;;19.88;100.00
6565;BME280;3316;44.118;27.258;2022-09-09T00:17:31;101139.50;;;19.80;100.00
6565;BME280;3316;44.118;27.258;2022-09-09T00:20:05;101137.06;;;19.74;100.00
6565;BME280;3316;44.118;27.258;2022-09-09T00:22:39;101106.63;;;19.57;100.00
6565;BME280;3316;44.118;27.258;2022-09-09T00:25:29;101144.22;;;19.74;100.00
6565;BME280;3316;44.118;27.258;2022-09-09T00:27:57;101147.06;;;19.69;100.00
6565;BME280;3316;44.118;27.258;2022-09-09T00:30:24;101106.31;;;19.42;100.00
6565;BME280;3316;44.118;27.258;2022-09-09T00:32:54;101144.63;;;19.63;100.00
6565;BME280;3316;44.118;27.258;2022-09-09T00:35:58;101135.06;;;19.58;100.00
6565;BME280;3316;44.118;27.258;2022-09-09T00:38:33;101096.00;;;19.33;100.00
6565;BME280;3316;44.118;27.258;2022-09-09T00:41:05;101144.13;;;19.53;100.00
6565;BME280;3316;44.118;27.258;2022-09-09T00:43:38;101145.69;;;19.59;100.00
6565;BME280;3316;44.118;27.258;2022-09-09T00:52:23;101158.81;;;19.65;100.00
6565;BME280;3316;44.118;27.258;2022-09-09T00:55:00;101147.25;;;19.65;100.00
6565;BME280;3316;44.118;27.258;2022-09-09T00:57:31;101141.97;;;19.63;100.00
6565;BME280;3316;44.118;27.258;2022-09-09T01:11:10;101148.13;;;19.65;100.00
6565;BME280;3316;44.118;27.258;2022-09-09T01:13:41;101159.47;;;19.70;100.00
6565;BME280;3316;44.118;27.258;2022-09-09T01:16:08;101146.09;;;19.72;100.00
6565;BME280;3316;44.118;27.258;2022-09-09T01:18:40;101150.78;;;19.65;100.00
6565;BME280;3316;44.118;27.258;2022-09-09T01:24:19;101142.09;;;19.60;100.00
6565;BME280;3316;44.118;27.258;2022-09-09T01:26:49;101146.56;;;19.60;100.00
6565;BME280;3316;44.118;27.258;2022-09-09T01:29:19;101124.34;;;19.59;100.00
6565;BME280;3316;44.118;27.258;2022-09-09T01:32:00;101151.78;;;19.63;100.00
6565;BME280;3316;44.118;27.258;2022-09-09T01:34:38;101140.25;;;19.62;100.00
6565;BME280;3316;44.118;27.258;2022-09-09T01:37:07;101160.66;;;19.63;100.00
6565;BME280;3316;44.118;27.258;2022-09-09T01:39:35;101150.84;;;19.64;100.00
6565;BME280;3316;44.118;27.258;2022-09-09T01:42:02;101153.53;;;19.64;100.00
6565;BME280;3316;44.118;27.258;2022-09-09T01:44:29;101154.28;;;19.67;100.00
6565;BME280;3316;44.118;27.258;2022-09-09T01:46:55;101149.59;;;19.72;100.00
6565;BME280;3316;44.118;27.258;2022-09-09T01:49:21;101128.56;;;19.65;100.00
6565;BME280;3316;44.118;27.258;2022-09-09T01:51:51;101133.78;;;19.68;100.00
6565;BME280;3316;44.118;27.258;2022-09-09T01:54:18;101131.13;;;19.68;100.00
6565;BME280;3316;44.118;27.258;2022-09-09T02:04:40;101127.00;;;19.59;100.00
6565;BME280;3316;44.118;27.258;2022-09-09T02:10:17;101127.31;;;19.51;100.00
6565;BME280;3316;44.118;27.258;2022-09-09T02:12:52;101121.22;;;19.48;100.00
6565;BME280;3316;44.118;27.258;2022-09-09T02:15:28;101133.81;;;19.44;100.00
6565;BME280;3316;44.118;27.258;2022-09-09T02:17:57;101081.53;;;19.16;100.00
6565;BME280;3316;44.118;27.258;2022-09-09T02:20:24;101144.53;;;19.43;100.00
6565;BME280;3316;44.118;27.258;2022-09-09T02:22:53;101140.25;;;19.39;100.00
6565;BME280;3316;44.118;27.258;2022-09-09T02:25:23;101134.97;;;19.37;100.00
6565;BME280;3316;44.118;27.258;2022-09-09T02:27:50;101136.75;;;19.37;100.00
6565;BME280;3316;44.118;27.258;2022-09-09T02:30:18;101139.34;;;19.40;100.00
6565;BME280;3316;44.118;27.258;2022-09-09T02:32:46;101132.13;;;19.42;100.00
6565;BME280;3316;44.118;27.258;2022-09-09T02:35:17;101136.75;;;19.37;100.00
6565;BME280;3316;44.118;27.258;2022-09-09T02:37:45;101137.47;;;19.42;100.00
6565;BME280;3316;44.118;27.258;2022-09-09T02:40:13;101131.50;;;19.35;100.00
6565;BME280;3316;44.118;27.258;2022-09-09T02:42:45;101148.16;;;19.42;100.00
6565;BME280;3316;44.118;27.258;2022-09-09T02:45:18;101140.44;;;19.34;100.00
6565;BME280;3316;44.118;27.258;2022-09-09T02:50:38;101116.19;;;19.16;100.00
6565;BME280;3316;44.118;27.258;2022-09-09T02:53:18;101120.97;;;19.31;100.00
6565;BME280;3316;44.118;27.258;2022-09-09T02:55:59;101142.28;;;19.32;100.00
6565;BME280;3316;44.118;27.258;2022-09-09T02:58:28;101132.56;;;19.30;100.00
6565;BME280;3316;44.118;27.258;2022-09-09T03:00:54;101095.38;;;19.02;100.00
6565;BME280;3316;44.118;27.258;2022-09-09T03:03:22;101129.97;;;19.28;100.00
6565;BME280;3316;44.118;27.258;2022-09-09T03:05:48;101120.44;;;19.21;100.00
6565;BME280;3316;44.118;27.258;2022-09-09T03:08:14;101123.16;;;19.20;100.00
6565;BME280;3316;44.118;27.258;2022-09-09T03:10:39;101123.22;;;19.18;100.00
6565;BME280;3316;44.118;27.258;2022-09-09T03:13:05;101110.13;;;19.12;100.00
6565;BME280;3316;44.118;27.258;2022-09-09T03:15:32;101121.47;;;19.17;100.00
6565;BME280;3316;44.118;27.258;2022-09-09T03:17:58;101119.59;;;19.21;100.00
6565;BME280;3316;44.118;27.258;2022-09-09T03:20:25;101117.91;;;19.18;100.00
6565;BME280;3316;44.118;27.258;2022-09-09T03:22:52;101130.28;;;19.19;100.00
6565;BME280;3316;44.118;27.258;2022-09-09T03:25:18;101132.13;;;19.19;100.00
6565;BME280;3316;44.118;27.258;2022-09-09T03:27:44;101129.31;;;19.22;100.00
6565;BME280;3316;44.118;27.258;2022-09-09T03:30:10;101128.16;;;19.29;100.00
6565;BME280;3316;44.118;27.258;2022-09-09T03:32:36;101119.53;;;19.22;100.00
6565;BME280;3316;44.118;27.258;2022-09-09T03:35:02;101134.22;;;19.34;100.00
6565;BME280;3316;44.118;27.258;2022-09-09T03:37:27;101130.78;;;19.30;100.00
6565;BME280;3316;44.118;27.258;2022-09-09T03:39:53;101133.53;;;19.27;100.00
6565;BME280;3316;44.118;27.258;2022-09-09T03:42:21;101120.16;;;19.29;100.00
6565;BME280;3316;44.118;27.258;2022-09-09T03:44:47;101122.78;;;19.30;100.00
6565;BME280;3316;44.118;27.258;2022-09-09T03:47:20;101125.53;;;19.27;100.00
6565;BME280;3316;44.118;27.258;2022-09-09T03:49:47;101124.44;;;19.34;100.00
6565;BME280;3316;44.118;27.258;2022-09-09T03:52:14;101127.13;;;19.33;100.00
6565;BME280;3316;44.118;27.258;2022-09-09T03:54:40;101115.53;;;19.34;100.00
6565;BME280;3316;44.118;27.258;2022-09-09T03:57:06;101125.34;;;19.33;100.00
6565;BME280;3316;44.118;27.258;2022-09-09T03:59:32;101105.25;;;19.23;100.00
6565;BME280;3316;44.118;27.258;2022-09-09T04:01:57;101119.28;;;19.28;100.00
6565;BME280;3316;44.118;27.258;2022-09-09T04:04:24;101115.06;;;19.23;100.00
6565;BME280;3316;44.118;27.258;2022-09-09T04:06:49;101121.09;;;19.28;100.00
6565;BME280;3316;44.118;27.258;2022-09-09T04:09:16;101111.94;;;19.35;100.00
6565;BME280;3316;44.118;27.258;2022-09-09T04:11:41;101116.56;;;19.30;100.00
6565;BME280;3316;44.118;27.258;2022-09-09T04:14:07;101111.47;;;19.69;100.00
6565;BME280;3316;44.118;27.258;2022-09-09T04:16:33;101106.69;;;19.98;100.00
6565;BME280;3316;44.118;27.258;2022-09-09T04:18:59;101117.72;;;20.32;100.00
6565;BME280;3316;44.118;27.258;2022-09-09T04:21:25;101117.63;;;20.56;100.00
6565;BME280;3316;44.118;27.258;2022-09-09T04:23:51;101123.09;;;20.73;100.00
6565;BME280;3316;44.118;27.258;2022-09-09T04:26:16;101126.34;;;20.79;100.00
6565;BME280;3316;44.118;27.258;2022-09-09T04:28:42;101124.53;;;21.00;100.00
6565;BME280;3316;44.118;27.258;2022-09-09T04:31:10;101109.13;;;21.25;100.00
6565;BME280;3316;44.118;27.258;2022-09-09T04:33:38;101123.59;;;21.58;100.00
6565;BME280;3316;44.118;27.258;2022-09-09T04:36:04;101132.78;;;21.71;100.00
6565;BME280;3316;44.118;27.258;2022-09-09T04:38:30;101128.53;;;21.86;100.00
6565;BME280;3316;44.118;27.258;2022-09-09T04:40:55;101136.09;;;21.95;100.00
6565;BME280;3316;44.118;27.258;2022-09-09T04:43:21;101132.22;;;22.19;100.00
6565;BME280;3316;44.118;27.258;2022-09-09T04:45:48;101127.88;;;22.17;100.00
6565;BME280;3316;44.118;27.258;2022-09-09T04:48:15;101133.50;;;22.29;100.00
6565;BME280;3316;44.118;27.258;2022-09-09T04:50:40;101131.53;;;22.50;100.00
6565;BME280;3316;44.118;27.258;2022-09-09T04:53:06;101136.50;;;22.91;100.00
6565;BME280;3316;44.118;27.258;2022-09-09T04:55:34;101128.69;;;23.20;100.00
6565;BME280;3316;44.118;27.258;2022-09-09T04:58:07;101127.13;;;23.48;98.45
6565;BME280;3316;44.118;27.258;2022-09-09T05:00:34;101127.03;;;23.34;98.23
6565;BME280;3316;44.118;27.258;2022-09-09T05:03:07;101123.13;;;23.55;96.60
6565;BME280;3316;44.118;27.258;2022-09-09T05:05:34;101135.00;;;23.98;94.25
6565;BME280;3316;44.118;27.258;2022-09-09T05:08:04;101140.22;;;24.46;90.68
6565;BME280;3316;44.118;27.258;2022-09-09T05:10:30;101136.94;;;24.71;88.51
6565;BME280;3316;44.118;27.258;2022-09-09T05:12:56;101136.16;;;24.69;87.87
6565;BME280;3316;44.118;27.258;2022-09-09T05:15:21;101138.22;;;24.80;85.86
6565;BME280;3316;44.118;27.258;2022-09-09T05:17:47;101142.03;;;25.19;84.22
6565;BME280;3316;44.118;27.258;2022-09-09T05:20:12;101134.59;;;25.23;83.03
6565;BME280;3316;44.118;27.258;2022-09-09T05:22:38;101139.13;;;25.22;82.32
6565;BME280;3316;44.118;27.258;2022-09-09T05:25:04;101145.38;;;25.37;82.49
6565;BME280;3316;44.118;27.258;2022-09-09T05:27:29;101120.97;;;25.81;78.18
6565;BME280;3316;44.118;27.258;2022-09-09T05:29:56;101132.56;;;26.36;75.74
6565;BME280;3316;44.118;27.258;2022-09-09T05:32:22;101133.38;;;26.24;74.57
6565;BME280;3316;44.118;27.258;2022-09-09T05:34:48;101134.72;;;26.31;73.88
6565;BME280;3316;44.118;27.258;2022-09-09T05:37:13;101132.72;;;26.60;72.95
6565;BME280;3316;44.118;27.258;2022-09-09T05:39:39;101147.34;;;26.82;71.46
6565;BME280;3316;44.118;27.258;2022-09-09T05:42:05;101128.72;;;26.65;72.74
6565;BME280;3316;44.118;27.258;2022-09-09T05:44:31;101132.88;;;26.71;71.52
6565;BME280;3316;44.118;27.258;2022-09-09T05:46:56;101116.66;;;26.05;71.76
6565;BME280;3316;44.118;27.258;2022-09-09T05:49:23;101146.88;;;26.63;69.89
6565;BME280;3316;44.118;27.258;2022-09-09T05:51:49;101131.84;;;26.20;71.36
6565;BME280;3316;44.118;27.258;2022-09-09T05:54:15;101133.09;;;26.80;68.29
6565;BME280;3316;44.118;27.258;2022-09-09T05:56:41;101129.66;;;26.91;65.99
6565;BME280;3316;44.118;27.258;2022-09-09T05:59:07;101131.47;;;27.53;62.96
6565;BME280;3316;44.118;27.258;2022-09-09T06:01:34;101136.41;;;28.08;59.11
6565;BME280;3316;44.118;27.258;2022-09-09T06:04:00;101112.78;;;27.74;59.25
6565;BME280;3316;44.118;27.258;2022-09-09T06:06:30;101106.88;;;27.56;61.23
6565;BME280;3316;44.118;27.258;2022-09-09T06:08:57;101128.50;;;28.05;60.47
6565;BME280;3316;44.118;27.258;2022-09-09T06:11:25;101149.41;;;28.27;57.15
6565;BME280;3316;44.118;27.258;2022-09-09T06:13:52;101130.53;;;28.14;57.11
6565;BME280;3316;44.118;27.258;2022-09-09T06:16:21;101125.59;;;29.23;53.13
6565;BME280;3316;44.118;27.258;2022-09-09T06:18:48;101119.56;;;29.20;52.85
6565;BME280;3316;44.118;27.258;2022-09-09T06:21:22;101125.41;;;29.69;50.52
6565;BME280;3316;44.118;27.258;2022-09-09T06:23:48;101112.28;;;29.42;51.22
6565;BME280;3316;44.118;27.258;2022-09-09T06:26:16;101119.63;;;29.84;49.01
6565;BME280;3316;44.118;27.258;2022-09-09T06:28:43;101120.03;;;30.12;48.19
6565;BME280;3316;44.118;27.258;2022-09-09T06:31:11;101131.44;;;30.37;46.54
6565;BME280;3316;44.118;27.258;2022-09-09T06:33:38;101142.66;;;30.44;46.30
6565;BME280;3316;44.118;27.258;2022-09-09T06:36:28;101143.31;;;30.57;46.22
6565;BME280;3316;44.118;27.258;2022-09-09T06:38:54;101139.19;;;30.73;44.02
6565;BME280;3316;44.118;27.258;2022-09-09T06:41:21;101149.00;;;30.33;46.21
6565;BME280;3316;44.118;27.258;2022-09-09T06:43:47;101148.38;;;29.87;46.66
6565;BME280;3316;44.118;27.258;2022-09-09T06:46:21;101142.06;;;30.40;46.19
6565;BME280;3316;44.118;27.258;2022-09-09T06:48:47;101139.06;;;31.46;43.38
6565;BME280;3316;44.118;27.258;2022-09-09T06:51:21;101137.09;;;32.07;41.00
6565;BME280;3316;44.118;27.258;2022-09-09T06:53:47;101133.94;;;31.53;41.13
6565;BME280;3316;44.118;27.258;2022-09-09T06:58:41;101130.41;;;31.11;41.93
6565;BME280;3316;44.118;27.258;2022-09-09T07:01:12;101142.38;;;31.50;41.98
6565;BME280;3316;44.118;27.258;2022-09-09T07:03:39;101139.91;;;31.17;41.90
6565;BME280;3316;44.118;27.258;2022-09-09T07:06:05;101158.19;;;32.15;40.95
6565;BME280;3316;44.118;27.258;2022-09-09T07:08:31;101172.91;;;32.03;40.22
6565;BME280;3316;44.118;27.258;2022-09-09T07:11:04;101166.81;;;31.80;40.30
6565;BME280;3316;44.118;27.258;2022-09-09T07:13:33;101167.44;;;31.93;40.43
6565;BME280;3316;44.118;27.258;2022-09-09T07:16:06;101171.13;;;31.43;41.04
6565;BME280;3316;44.118;27.258;2022-09-09T07:18:32;101163.88;;;31.53;41.74
6565;BME280;3316;44.118;27.258;2022-09-09T07:20:58;101178.34;;;31.93;40.06
6565;BME280;3316;44.118;27.258;2022-09-09T07:23:24;101169.97;;;33.11;37.80
6565;BME280;3316;44.118;27.258;2022-09-09T07:25:50;101178.72;;;33.05;35.98
6565;BME280;3316;44.118;27.258;2022-09-09T07:28:16;101178.09;;;31.96;37.82
6565;BME280;3316;44.118;27.258;2022-09-09T07:30:42;101164.44;;;31.06;38.83
6565;BME280;3316;44.118;27.258;2022-09-09T07:33:08;101164.97;;;31.00;39.76
6565;BME280;3316;44.118;27.258;2022-09-09T07:35:37;101169.00;;;31.56;38.82
6565;BME280;3316;44.118;27.258;2022-09-09T07:38:03;101163.13;;;31.21;39.08
6565;BME280;3316;44.118;27.258;2022-09-09T07:40:32;101152.28;;;30.68;39.71
6565;BME280;3316;44.118;27.258;2022-09-09T07:42:57;101159.84;;;30.33;40.29
6565;BME280;3316;44.118;27.258;2022-09-09T07:45:24;101149.75;;;30.24;41.26
6565;BME280;3316;44.118;27.258;2022-09-09T07:47:49;101157.09;;;29.91;41.50
6565;BME280;3316;44.118;27.258;2022-09-09T07:50:15;101146.66;;;29.86;41.24
6565;BME280;3316;44.118;27.258;2022-09-09T07:52:41;101162.66;;;29.89;41.60
6565;BME280;3316;44.118;27.258;2022-09-09T07:55:06;101146.66;;;29.75;41.39
6565;BME280;3316;44.118;27.258;2022-09-09T07:57:32;101158.81;;;30.03;41.61
6565;BME280;3316;44.118;27.258;2022-09-09T07:59:57;101151.63;;;30.13;40.85
6565;BME280;3316;44.118;27.258;2022-09-09T08:02:23;101159.59;;;29.94;40.54
6565;BME280;3316;44.118;27.258;2022-09-09T08:04:49;101158.81;;;30.03;41.19
6565;BME280;3316;44.118;27.258;2022-09-09T08:07:14;101141.41;;;30.05;40.82
6565;BME280;3316;44.118;27.258;2022-09-09T08:09:41;101157.19;;;30.11;40.30
6565;BME280;3316;44.118;27.258;2022-09-09T08:12:07;101149.78;;;30.02;40.68
6565;BME280;3316;44.118;27.258;2022-09-09T08:14:34;101133.19;;;29.96;40.04
6565;BME280;3316;44.118;27.258;2022-09-09T08:16:59;101107.63;;;29.98;40.45
6565;BME280;3316;44.118;27.258;2022-09-09T08:19:25;101106.47;;;30.43;39.60
6565;BME280;3316;44.118;27.258;2022-09-09T08:21:50;101112.53;;;30.67;38.97
6565;BME280;3316;44.118;27.258;2022-09-09T08:24:16;101115.84;;;30.71;39.00
6565;BME280;3316;44.118;27.258;2022-09-09T08:26:45;101079.72;;;30.59;39.53
6565;BME280;3316;44.118;27.258;2022-09-09T08:29:13;101111.56;;;31.19;38.81
6565;BME280;3316;44.118;27.258;2022-09-09T08:34:07;101105.47;;;30.97;38.68
6565;BME280;3316;44.118;27.258;2022-09-09T08:36:36;101107.44;;;30.95;38.95
6565;BME280;3316;44.118;27.258;2022-09-09T08:39:03;101121.09;;;31.04;38.69
6565;BME280;3316;44.118;27.258;2022-09-09T08:55:52;101157.81;;;30.99;37.09
6565;BME280;3316;44.118;27.258;2022-09-09T08:58:29;101142.19;;;31.21;36.76
6565;BME280;3316;44.118;27.258;2022-09-09T09:01:21;101131.50;;;31.50;37.12
6565;BME280;3316;44.118;27.258;2022-09-09T09:06:42;101105.84;;;31.43;36.06
6565;BME280;3316;44.118;27.258;2022-09-09T09:11:55;101106.06;;;31.70;34.93
6565;BME280;3316;44.118;27.258;2022-09-09T09:14:24;101102.22;;;31.73;34.13
6565;BME280;3316;44.118;27.258;2022-09-09T09:17:02;101107.53;;;31.84;35.26
6565;BME280;3316;44.118;27.258;2022-09-09T09:19:29;101100.34;;;31.73;35.23
6565;BME280;3316;44.118;27.258;2022-09-09T09:24:56;101094.19;;;31.81;34.76
6565;BME280;3316;44.118;27.258;2022-09-09T09:27:40;101114.50;;;31.67;35.20
6565;BME280;3316;44.118;27.258;2022-09-09T09:30:14;101096.03;;;31.71;34.91
6565;BME280;3316;44.118;27.258;2022-09-09T09:32:45;101093.31;;;31.71;35.58
6565;BME280;3316;44.118;27.258;2022-09-09T09:35:14;101094.63;;;31.76;35.92
6565;BME280;3316;44.118;27.258;2022-09-09T09:37:41;101096.69;;;31.44;35.79
6565;BME280;3316;44.118;27.258;2022-09-09T09:40:14;101083.91;;;31.84;35.64
6565;BME280;3316;44.118;27.258;2022-09-09T09:42:54;101096.13;;;31.99;35.24
6565;BME280;3316;44.118;27.258;2022-09-09T09:45:41;101100.84;;;31.48;35.52
6565;BME280;3316;44.118;27.258;2022-09-09T09:48:11;101067.81;;;31.72;34.53
6565;BME280;3316;44.118;27.258;2022-09-09T09:50:57;101079.81;;;32.37;34.40
6565;BME280;3316;44.118;27.258;2022-09-09T09:53:26;101077.94;;;32.00;33.80
6565;BME280;3316;44.118;27.258;2022-09-09T09:55:57;101077.16;;;31.79;34.88
6565;BME280;3316;44.118;27.258;2022-09-09T09:58:23;101079.56;;;31.72;34.84
6565;BME280;3316;44.118;27.258;2022-09-09T10:00:52;101080.47;;;31.42;35.46
6565;BME280;3316;44.118;27.258;2022-09-09T10:03:30;101070.28;;;31.75;35.37
6565;BME280;3316;44.118;27.258;2022-09-09T10:05:56;101064.16;;;32.01;34.10
6565;BME280;3316;44.118;27.258;2022-09-09T10:08:24;101064.59;;;32.25;33.88
6565;BME280;3316;44.118;27.258;2022-09-09T10:25:20;101045.69;;;32.33;32.29
6565;BME280;3316;44.118;27.258;2022-09-09T10:31:05;101057.31;;;32.45;33.22
6565;BME280;3316;44.118;27.258;2022-09-09T10:36:25;101048.41;;;32.24;32.68
6565;BME280;3316;44.118;27.258;2022-09-09T10:39:01;101056.16;;;32.48;32.21
6565;BME280;3316;44.118;27.258;2022-09-09T10:44:14;101047.88;;;32.86;31.79
6565;BME280;3316;44.118;27.258;2022-09-09T10:52:16;101053.72;;;32.45;33.13
6565;BME280;3316;44.118;27.258;2022-09-09T10:55:14;101048.97;;;32.47;32.59
6565;BME280;3316;44.118;27.258;2022-09-09T10:57:50;101047.22;;;32.65;33.09
6565;BME280;3316;44.118;27.258;2022-09-09T11:03:12;101042.84;;;32.91;32.33
6565;BME280;3316;44.118;27.258;2022-09-09T11:05:56;101039.06;;;32.36;33.10
6565;BME280;3316;44.118;27.258;2022-09-09T11:08:29;101043.38;;;32.29;33.37
6565;BME280;3316;44.118;27.258;2022-09-09T11:16:11;101057.69;;;32.60;33.10
6565;BME280;3316;44.118;27.258;2022-09-09T11:18:41;101042.41;;;32.49;32.92
6565;BME280;3316;44.118;27.258;2022-09-09T11:24:33;101043.09;;;32.41;32.63
6565;BME280;3316;44.118;27.258;2022-09-09T11:30:02;101035.50;;;32.35;32.63
6565;BME280;3316;44.118;27.258;2022-09-09T11:38:32;101031.94;;;32.91;32.11
6565;BME280;3316;44.118;27.258;2022-09-09T11:41:05;101024.88;;;32.61;32.32
6565;BME280;3316;44.118;27.258;2022-09-09T11:43:41;101027.84;;;32.68;31.89
6565;BME280;3316;44.118;27.258;2022-09-09T11:46:08;101034.44;;;32.75;31.80
6565;BME280;3316;44.118;27.258;2022-09-09T11:48:40;101029.59;;;32.30;32.74
6565;BME280;3316;44.118;27.258;2022-09-09T11:51:33;101009.97;;;32.27;32.75
6565;BME280;3316;44.118;27.258;2022-09-09T11:54:02;101019.69;;;32.58;32.49
6565;BME280;3316;44.118;27.258;2022-09-09T11:56:47;101018.69;;;32.69;31.43
6565;BME280;3316;44.118;27.258;2022-09-09T11:59:27;101004.34;;;32.67;31.29
6565;BME280;3316;44.118;27.258;2022-09-09T12:01:59;101007.63;;;32.70;31.51
6565;BME280;3316;44.118;27.258;2022-09-09T12:04:47;101006.19;;;32.66;31.68
6565;BME280;3316;44.118;27.258;2022-09-09T12:10:19;101004.06;;;33.06;30.88
6565;BME280;3316;44.118;27.258;2022-09-09T12:12:45;100998.50;;;32.89;31.10
6565;BME280;3316;44.118;27.258;2022-09-09T12:17:45;101010.44;;;32.88;31.17
6565;BME280;3316;44.118;27.258;2022-09-09T12:20:13;101006.44;;;32.82;31.37
6565;BME280;3316;44.118;27.258;2022-09-09T12:23:01;101013.78;;;32.72;31.09
6565;BME280;3316;44.118;27.258;2022-09-09T12:30:57;100989.94;;;32.84;31.40
6565;BME280;3316;44.118;27.258;2022-09-09T12:33:24;100984.63;;;32.82;31.38
6565;BME280;3316;44.118;27.258;2022-09-09T12:35:59;100971.66;;;33.03;31.38
6565;BME280;3316;44.118;27.258;2022-09-09T12:38:38;100963.16;;;33.06;30.83
6565;BME280;3316;44.118;27.258;2022-09-09T12:41:04;100975.91;;;33.15;30.89
6565;BME280;3316;44.118;27.258;2022-09-09T12:43:30;100973.28;;;32.96;30.54
6565;BME280;3316;44.118;27.258;2022-09-09T12:46:02;100970.38;;;32.98;31.09
6565;BME280;3316;44.118;27.258;2022-09-09T12:48:38;100955.06;;;33.14;29.99
6565;BME280;3316;44.118;27.258;2022-09-09T12:51:16;100971.38;;;32.97;30.78
6565;BME280;3316;44.118;27.258;2022-09-09T12:53:44;100965.66;;;32.90;30.46
6565;BME280;3316;44.118;27.258;2022-09-09T12:56:19;100936.22;;;32.94;30.59
6565;BME280;3316;44.118;27.258;2022-09-09T12:58:47;100967.59;;;33.07;29.70
6565;BME280;3316;44.118;27.258;2022-09-09T13:01:23;100966.88;;;33.33;29.11
6565;BME280;3316;44.118;27.258;2022-09-09T13:03:49;100968.34;;;33.27;29.69
6565;BME280;3316;44.118;27.258;2022-09-09T13:06:22;100963.34;;;33.22;29.36
6565;BME280;3316;44.118;27.258;2022-09-09T13:08:48;100962.66;;;33.38;28.63
6565;BME280;3316;44.118;27.258;2022-09-09T13:11:18;100964.78;;;32.99;29.26
6565;BME280;3316;44.118;27.258;2022-09-09T13:13:51;100959.34;;;32.90;29.67
6565;BME280;3316;44.118;27.258;2022-09-09T13:16:35;100945.38;;;33.02;28.98
6565;BME280;3316;44.118;27.258;2022-09-09T13:19:09;100953.44;;;33.04;28.91
6565;BME280;3316;44.118;27.258;2022-09-09T13:21:38;100957.06;;;32.85;29.03
6565;BME280;3316;44.118;27.258;2022-09-09T13:24:06;100953.72;;;32.64;29.37
6565;BME280;3316;44.118;27.258;2022-09-09T13:26:33;100943.72;;;32.55;29.19
6565;BME280;3316;44.118;27.258;2022-09-09T13:29:18;100939.66;;;32.69;28.62
6565;BME280;3316;44.118;27.258;2022-09-09T13:31:44;100932.72;;;32.74;28.38
6565;BME280;3316;44.118;27.258;2022-09-09T13:34:12;100944.06;;;32.70;28.47
6565;BME280;3316;44.118;27.258;2022-09-09T13:36:48;100952.00;;;32.63;28.82
6565;BME280;3316;44.118;27.258;2022-09-09T13:39:17;100945.75;;;32.43;28.80
6565;BME280;3316;44.118;27.258;2022-09-09T13:41:46;100940.41;;;32.42;28.46
6565;BME280;3316;44.118;27.258;2022-09-09T13:44:28;100934.97;;;32.52;28.77
6565;BME280;3316;44.118;27.258;2022-09-09T13:49:39;100927.81;;;32.51;28.99
6565;BME280;3316;44.118;27.258;2022-09-09T13:52:16;100923.81;;;32.45;29.11
6565;BME280;3316;44.118;27.258;2022-09-09T13:54:42;100924.53;;;32.47;28.40
6565;BME280;3316;44.118;27.258;2022-09-09T13:57:34;100938.72;;;32.51;27.89
6565;BME280;3316;44.118;27.258;2022-09-09T14:00:01;100936.69;;;32.53;28.21
6565;BME280;3316;44.118;27.258;2022-09-09T14:02:26;100937.47;;;32.72;27.82
6565;BME280;3316;44.118;27.258;2022-09-09T14:04:51;100925.00;;;32.70;28.21
6565;BME280;3316;44.118;27.258;2022-09-09T14:07:20;100914.84;;;32.62;28.07
6565;BME280;3316;44.118;27.258;2022-09-09T14:09:46;100937.13;;;32.85;27.30
6565;BME280;3316;44.118;27.258;2022-09-09T14:12:15;100940.41;;;32.88;27.74
6565;BME280;3316;44.118;27.258;2022-09-09T14:14:42;100935.09;;;32.87;27.86
6565;BME280;3316;44.118;27.258;2022-09-09T14:17:08;100936.09;;;32.59;28.14
6565;BME280;3316;44.118;27.258;2022-09-09T14:19:34;100920.06;;;32.36;28.14
6565;BME280;3316;44.118;27.258;2022-09-09T14:22:00;100921.34;;;32.42;28.17
6565;BME280;3316;44.118;27.258;2022-09-09T14:24:27;100916.41;;;32.28;28.68
6565;BME280;3316;44.118;27.258;2022-09-09T14:26:53;100935.56;;;32.36;28.95
6565;BME280;3316;44.118;27.258;2022-09-09T14:29:18;100936.06;;;32.12;28.85
6565;BME280;3316;44.118;27.258;2022-09-09T14:31:44;100916.16;;;31.83;29.26
6565;BME280;3316;44.118;27.258;2022-09-09T14:34:09;100920.44;;;31.76;29.61
6565;BME280;3316;44.118;27.258;2022-09-09T14:36:36;100920.31;;;31.68;29.71
6565;BME280;3316;44.118;27.258;2022-09-09T14:39:03;100914.88;;;31.49;29.54
6565;BME280;3316;44.118;27.258;2022-09-09T14:41:29;100919.28;;;31.40;29.98
6565;BME280;3316;44.118;27.258;2022-09-09T14:43:54;100911.25;;;31.20;30.37
6565;BME280;3316;44.118;27.258;2022-09-09T14:46:20;100908.94;;;31.25;30.45
6565;BME280;3316;44.118;27.258;2022-09-09T14:48:46;100907.22;;;31.14;30.57
6565;BME280;3316;44.118;27.258;2022-09-09T14:51:19;100896.22;;;31.16;31.35
6565;BME280;3316;44.118;27.258;2022-09-09T14:53:45;100892.63;;;31.15;31.41
6565;BME280;3316;44.118;27.258;2022-09-09T14:56:16;100899.09;;;31.24;31.94
6565;BME280;3316;44.118;27.258;2022-09-09T14:58:42;100869.97;;;30.96;33.33
6565;BME280;3316;44.118;27.258;2022-09-09T15:01:11;100888.00;;;30.87;35.74
6565;BME280;3316;44.118;27.258;2022-09-09T15:03:38;100889.78;;;30.67;36.63
6565;BME280;3316;44.118;27.258;2022-09-09T15:06:06;100878.38;;;30.43;37.90
6565;BME280;3316;44.118;27.258;2022-09-09T15:08:34;100877.81;;;30.49;38.44
6565;BME280;3316;44.118;27.258;2022-09-09T15:11:05;100796.81;;;29.94;39.74
6565;BME280;3316;44.118;27.258;2022-09-09T15:13:31;100883.75;;;30.34;40.62
6565;BME280;3316;44.118;27.258;2022-09-09T15:16:04;100882.31;;;30.09;41.65